MT WASHINGTON (MTW)

Elevation: 920' · LOS ANGELES R basin · Operator: Los Angeles County Fire Dept

Query executed Monday at 23:50:40   clock

Provisional data, subject to change.
Select a sensor type for a plot of data.

Earlier

Date   /   Time   RAIN     TEMP     REL HUM     BAR PRE     FUEL MS     FUEL TP     WIND SP     WIND DR     PEAK WS     PEAK WD     SOLAR R     BAT VOL    
(PDT)INCHES   DEG F   %   INCHES   %   DEG F   MPH   DEG   MPH   DEG   W/M^2   VOLTS  
10/20/2014 00:00 0.00 62 93 -- 19 61 -- -- -- -- 0.00 12.4
10/20/2014 01:00 0.00 62 93 -- 19 60 -- -- -- -- 0.00 12.4
10/20/2014 02:00 0.00 61 93 -- 19 60 -- -- -- -- 0.00 12.4
10/20/2014 03:00 0.00 61 93 -- 21 59 -- -- -- -- 0.00 12.3
10/20/2014 04:00 0.00 60 94 -- 22 59 -- -- -- -- 0.00 12.3
10/20/2014 05:00 0.00 60 94 -- 23 60 -- -- -- -- 0.00 12.3
10/20/2014 06:00 0.00 61 94 -- 21 61 -- -- -- -- 0.00 12.2
10/20/2014 07:00 0.00 62 93 -- 20 62 -- -- -- -- 16.00 12.3
10/20/2014 08:00 0.00 64 87 -- 20 65 -- -- -- -- 68.00 12.9
10/20/2014 09:00 0.00 65 79 -- 18 67 -- -- -- -- 118.00 12.8
10/20/2014 10:00 0.00 70 68 -- 17 72 -- -- -- -- 198.00 13.3
10/20/2014 11:00 0.00 79 50 -- 15 87 -- -- -- -- 604.00 13.4
10/20/2014 12:00 0.00 77 52 -- 14 86 -- -- -- -- 652.00 13.4
10/20/2014 13:00 0.00 79 47 -- 13 94 -- -- -- -- 629.00 13.4
10/20/2014 14:00 0.00 81 40 -- 11 93 -- -- -- -- 545.00 13.4
10/20/2014 15:00 0.00 78 52 -- 11 86 -- -- -- -- 400.00 13.4
10/20/2014 16:00 0.00 74 59 -- 11 75 -- -- -- -- 138.00 13.5
10/20/2014 17:00 0.00 67 75 -- 12 68 -- -- -- -- 54.00 12.6
10/20/2014 18:00 0.00 65 82 -- 14 65 -- -- -- -- 2.00 12.5
10/20/2014 19:00 0.00 63 84 -- 14 63 -- -- -- -- 0.00 12.5
10/20/2014 20:00 0.00 63 88 -- 15 62 -- -- -- -- 0.00 12.5
10/20/2014 21:00 0.00 64 90 -- 17 62 -- -- -- -- 0.00 12.5
10/20/2014 22:00 0.00 62 91 -- 18 61 -- -- -- -- 0.00 12.4
10/20/2014 23:00 0.00 61 92 -- 19 61 -- -- -- -- 0.00 12.4

Later | Latest

Warning! This data is preliminary and subject to revision.

Show MTW Map | 24 Hours MTW Data | Plot all MTW Sensors | Daily MTW Data | MTW Info